createdAt,value
2023-01-18T00:00:10.516Z,20.10
2023-01-18T00:02:37.394Z,18.67
2023-01-18T00:05:04.254Z,18.43
2023-01-18T00:07:31.418Z,18.13
2023-01-18T00:09:57.984Z,19.70
2023-01-18T00:12:24.602Z,17.70
2023-01-18T00:14:51.255Z,19.93
2023-01-18T00:17:17.858Z,17.30
2023-01-18T00:19:44.462Z,16.47
2023-01-18T00:22:11.064Z,17.37
2023-01-18T00:24:37.649Z,15.73
2023-01-18T00:27:04.366Z,16.27
2023-01-18T00:29:31.478Z,16.23
2023-01-18T00:31:58.089Z,15.63
2023-01-18T00:34:28.193Z,16.03
2023-01-18T00:36:54.781Z,14.33
2023-01-18T00:39:21.516Z,14.03
2023-01-18T00:42:06.763Z,15.83
2023-01-18T00:44:33.325Z,13.93
2023-01-18T00:46:59.928Z,14.57
2023-01-18T00:49:26.554Z,15.17
2023-01-18T00:51:53.226Z,14.93
2023-01-18T00:54:19.930Z,13.27
2023-01-18T00:56:46.516Z,15.43
2023-01-18T00:59:13.131Z,14.53
2023-01-18T01:01:39.957Z,13.20
2023-01-18T01:04:25.270Z,13.90
2023-01-18T01:06:51.913Z,13.77
2023-01-18T01:09:25.277Z,15.90
2023-01-18T01:12:11.395Z,15.40
2023-01-18T01:14:59.948Z,15.43
2023-01-18T01:17:47.206Z,14.93
2023-01-18T01:20:32.491Z,14.83
2023-01-18T01:23:27.366Z,13.77
2023-01-18T01:26:09.184Z,15.57
2023-01-18T01:28:40.468Z,15.00
2023-01-18T01:31:09.875Z,14.00
2023-01-18T01:33:37.008Z,14.97
2023-01-18T01:36:15.491Z,14.20
2023-01-18T01:38:42.509Z,15.50
2023-01-18T01:41:15.149Z,13.57
2023-01-18T01:43:49.634Z,14.63
2023-01-18T01:46:22.366Z,14.97
2023-01-18T01:48:49.064Z,13.93
2023-01-18T01:51:18.699Z,13.97
2023-01-18T01:53:47.296Z,14.00
2023-01-18T01:56:13.960Z,15.20
2023-01-18T01:58:41.174Z,14.57
2023-01-18T02:01:09.157Z,15.20
2023-01-18T02:03:39.095Z,15.47
2023-01-18T02:06:31.973Z,14.27
2023-01-18T02:09:04.898Z,13.80
2023-01-18T02:11:31.587Z,14.90
2023-01-18T02:14:01.866Z,13.90
2023-01-18T02:16:33.262Z,14.50
2023-01-18T02:19:13.590Z,13.70
2023-01-18T02:21:44.251Z,13.50
2023-01-18T02:24:23.320Z,13.97
2023-01-18T02:26:58.650Z,13.90
2023-01-18T02:29:59.181Z,13.83
2023-01-18T02:32:32.677Z,13.67
2023-01-18T02:35:07.660Z,15.60
2023-01-18T02:37:43.441Z,17.73
2023-01-18T02:40:37.701Z,16.37
2023-01-18T02:43:23.891Z,14.07
2023-01-18T02:46:09.035Z,17.27
2023-01-18T02:48:38.184Z,14.03
2023-01-18T02:51:05.651Z,13.47
2023-01-18T02:53:34.110Z,14.10
2023-01-18T02:56:01.624Z,14.93
2023-01-18T02:58:33.939Z,16.53
2023-01-18T03:01:17.417Z,15.80
2023-01-18T03:03:46.524Z,15.87
2023-01-18T03:06:13.919Z,16.60
2023-01-18T03:08:47.209Z,16.83
2023-01-18T03:11:23.474Z,15.23
2023-01-18T03:14:31.748Z,17.07
2023-01-18T03:17:05.777Z,14.17
2023-01-18T03:20:02.674Z,14.63
2023-01-18T03:22:51.736Z,15.97
2023-01-18T03:25:20.732Z,16.33
2023-01-18T03:28:07.352Z,15.03
2023-01-18T03:30:52.920Z,16.20
2023-01-18T03:33:40.791Z,16.93
2023-01-18T03:36:11.155Z,15.07
2023-01-18T03:38:39.647Z,15.57
2023-01-18T03:41:07.134Z,15.03
2023-01-18T03:43:37.839Z,14.37
2023-01-18T03:46:05.097Z,14.40
2023-01-18T03:48:32.563Z,15.70
2023-01-18T03:51:18.711Z,15.73
2023-01-18T03:53:51.367Z,14.40
2023-01-18T03:56:26.183Z,13.20
2023-01-18T03:58:54.514Z,14.40
2023-01-18T04:01:21.496Z,14.43
2023-01-18T04:03:48.231Z,14.80
2023-01-18T04:06:15.076Z,14.47
2023-01-18T04:08:41.761Z,15.33
2023-01-18T04:11:08.431Z,14.80
2023-01-18T04:13:34.992Z,15.90
2023-01-18T04:16:01.689Z,14.60
2023-01-18T04:18:28.450Z,15.03
2023-01-18T04:20:56.486Z,15.03
2023-01-18T04:23:23.951Z,15.60
2023-01-18T04:25:51.343Z,16.17
2023-01-18T04:28:25.202Z,15.87
2023-01-18T04:30:52.840Z,14.47
2023-01-18T04:33:20.710Z,16.20
2023-01-18T04:35:47.929Z,13.57
2023-01-18T04:38:15.136Z,15.00
2023-01-18T04:40:42.131Z,15.33
2023-01-18T04:43:08.959Z,14.60
2023-01-18T04:45:35.603Z,16.60
2023-01-18T04:48:02.230Z,15.17
2023-01-18T04:50:28.868Z,14.50
2023-01-18T04:52:56.062Z,15.90
2023-01-18T04:55:22.815Z,15.50
2023-01-18T04:57:57.302Z,16.03
2023-01-18T05:00:24.222Z,17.13
2023-01-18T05:02:51.192Z,16.13
2023-01-18T05:05:17.893Z,15.23
2023-01-18T05:07:44.625Z,15.10
2023-01-18T05:10:11.487Z,17.30
2023-01-18T05:12:38.205Z,14.27
2023-01-18T05:15:05.897Z,14.83
2023-01-18T05:17:35.086Z,15.90
2023-01-18T05:20:02.483Z,15.30
2023-01-18T05:22:29.260Z,15.53
2023-01-18T05:24:56.198Z,15.07
2023-01-18T05:27:22.802Z,15.57
2023-01-18T05:29:49.459Z,15.60
2023-01-18T05:32:16.077Z,16.63
2023-01-18T05:34:44.028Z,16.17
2023-01-18T05:37:10.991Z,16.83
2023-01-18T05:39:37.687Z,16.60
2023-01-18T05:42:05.590Z,16.03
2023-01-18T05:44:32.614Z,16.10
2023-01-18T05:46:59.457Z,16.20
2023-01-18T05:49:26.146Z,17.90
2023-01-18T05:51:52.769Z,16.53
2023-01-18T05:54:20.061Z,16.03
2023-01-18T05:56:46.765Z,16.60
2023-01-18T05:59:15.653Z,15.30
2023-01-18T06:01:42.575Z,17.30
2023-01-18T06:04:09.381Z,15.60
2023-01-18T06:06:36.013Z,17.17
2023-01-18T06:09:03.425Z,17.93
2023-01-18T06:11:30.133Z,17.93
2023-01-18T06:13:56.747Z,18.23
2023-01-18T06:16:24.603Z,17.43
2023-01-18T06:18:51.363Z,17.20
2023-01-18T06:21:18.040Z,17.23
2023-01-18T06:23:44.662Z,16.60
2023-01-18T06:26:11.302Z,16.60
2023-01-18T06:28:37.932Z,16.40
2023-01-18T06:31:07.767Z,17.30
2023-01-18T06:33:34.438Z,19.23
2023-01-18T06:36:01.472Z,17.90
2023-01-18T06:38:28.894Z,18.60
2023-01-18T06:40:57.105Z,18.90
2023-01-18T06:43:25.104Z,19.77
2023-01-18T06:45:53.672Z,19.37
2023-01-18T06:48:20.431Z,20.30
2023-01-18T06:50:47.006Z,20.17
2023-01-18T06:53:14.611Z,20.37
2023-01-18T06:55:41.359Z,19.13
2023-01-18T06:58:07.943Z,22.23
2023-01-18T07:00:35.022Z,22.37
2023-01-18T07:03:01.638Z,23.10
2023-01-18T07:05:28.218Z,23.17
2023-01-18T07:07:54.783Z,20.43
2023-01-18T07:10:21.419Z,21.60
2023-01-18T07:12:48.900Z,21.37
2023-01-18T07:15:21.995Z,21.17
2023-01-18T07:17:50.380Z,22.00
2023-01-18T07:20:17.297Z,22.33
2023-01-18T07:22:44.007Z,19.40
2023-01-18T07:25:13.369Z,20.73
2023-01-18T07:27:43.192Z,20.53
2023-01-18T07:30:13.168Z,19.77
2023-01-18T07:32:40.199Z,19.10
2023-01-18T07:35:07.365Z,19.40
2023-01-18T07:37:34.145Z,18.73
2023-01-18T07:40:05.231Z,18.03
2023-01-18T07:42:31.858Z,20.83
2023-01-18T07:44:58.866Z,20.07
2023-01-18T07:47:25.511Z,18.53
2023-01-18T07:49:52.166Z,18.80
2023-01-18T07:52:18.818Z,19.87
2023-01-18T07:54:45.924Z,18.70
2023-01-18T07:57:12.547Z,19.60
2023-01-18T07:59:39.838Z,16.70
2023-01-18T08:02:08.789Z,27.03
2023-01-18T08:04:35.453Z,19.60
2023-01-18T08:07:02.074Z,17.47
2023-01-18T08:09:28.798Z,16.60
2023-01-18T08:11:55.608Z,18.47
2023-01-18T08:14:22.295Z,19.37
2023-01-18T08:16:48.980Z,17.30
2023-01-18T08:19:16.622Z,18.37
2023-01-18T08:21:44.297Z,17.73
2023-01-18T08:24:10.936Z,17.40
2023-01-18T08:26:38.003Z,17.00
2023-01-18T08:29:04.736Z,19.23
2023-01-18T08:31:31.419Z,19.97
2023-01-18T08:33:58.182Z,20.00
2023-01-18T08:36:25.918Z,19.67
2023-01-18T08:38:56.800Z,19.20
2023-01-18T08:41:28.336Z,21.43
2023-01-18T08:43:55.653Z,20.67
2023-01-18T08:46:22.648Z,23.03
2023-01-18T08:48:51.059Z,21.63
2023-01-18T08:51:22.852Z,22.07
2023-01-18T08:53:54.405Z,20.07
2023-01-18T08:56:21.414Z,20.00
2023-01-18T08:58:48.568Z,19.83
2023-01-18T09:01:15.264Z,19.27
2023-01-18T09:03:42.508Z,19.33
2023-01-18T09:06:12.514Z,19.50
2023-01-18T09:08:39.823Z,21.27
2023-01-18T09:11:08.303Z,21.90
2023-01-18T09:13:35.200Z,22.20
2023-01-18T09:16:03.994Z,21.83
2023-01-18T09:18:30.837Z,22.53
2023-01-18T09:20:58.207Z,22.23
2023-01-18T09:23:25.382Z,21.73
2023-01-18T09:26:06.341Z,19.87
2023-01-18T09:28:33.484Z,21.53
2023-01-18T09:31:05.209Z,22.23
2023-01-18T09:33:37.589Z,21.33
2023-01-18T09:36:07.732Z,22.27
2023-01-18T09:38:35.109Z,22.60
2023-01-18T09:41:02.384Z,24.27
2023-01-18T09:43:41.152Z,22.90
2023-01-18T09:46:18.060Z,21.93
2023-01-18T09:48:45.830Z,22.43
2023-01-18T09:51:34.218Z,22.33
2023-01-18T09:54:42.950Z,23.83
2023-01-18T09:57:51.933Z,23.40
2023-01-18T10:00:22.781Z,21.47
2023-01-18T10:02:53.600Z,23.37
2023-01-18T10:05:23.316Z,22.57
2023-01-18T10:08:13.419Z,23.03
2023-01-18T10:10:43.831Z,22.37
2023-01-18T10:13:33.767Z,22.33
2023-01-18T10:16:01.278Z,22.27
2023-01-18T10:18:28.581Z,25.13
2023-01-18T10:21:01.775Z,22.33
2023-01-18T10:23:35.211Z,24.65
2023-01-18T10:26:04.165Z,23.13
2023-01-18T10:28:50.857Z,22.13
2023-01-18T10:31:24.818Z,22.63
2023-01-18T10:33:53.932Z,22.60
2023-01-18T10:36:26.085Z,23.10
2023-01-18T10:38:54.108Z,23.33
2023-01-18T10:41:27.629Z,23.27
2023-01-18T10:43:54.852Z,24.27
2023-01-18T10:46:21.750Z,23.37
2023-01-18T10:48:50.785Z,24.30
2023-01-18T10:51:49.607Z,22.77
2023-01-18T10:54:19.168Z,24.80
2023-01-18T10:56:46.026Z,23.63
2023-01-18T10:59:25.246Z,23.33
2023-01-18T11:01:55.119Z,23.52
2023-01-18T11:04:29.344Z,23.60
2023-01-18T11:07:00.742Z,23.30
2023-01-18T11:09:48.444Z,22.97
2023-01-18T11:12:51.099Z,22.80
2023-01-18T11:15:18.911Z,21.65
2023-01-18T11:17:58.762Z,22.80
2023-01-18T11:20:33.881Z,20.30
2023-01-18T11:23:00.891Z,20.67
2023-01-18T11:25:36.597Z,20.13
2023-01-18T11:28:03.959Z,18.77
2023-01-18T11:30:30.718Z,20.65
2023-01-18T11:32:59.997Z,18.27
2023-01-18T11:35:34.436Z,18.35
2023-01-18T11:38:02.990Z,18.00
2023-01-18T11:40:32.309Z,17.98
2023-01-18T11:43:03.653Z,17.70
2023-01-18T11:45:40.489Z,17.55
2023-01-18T11:48:48.611Z,17.65
2023-01-18T11:51:24.646Z,18.05
2023-01-18T11:54:04.878Z,16.50
2023-01-18T11:56:31.369Z,18.40
2023-01-18T11:58:58.627Z,17.40
2023-01-18T12:01:43.537Z,17.25
2023-01-18T12:04:23.003Z,16.08
2023-01-18T12:07:21.616Z,16.00
2023-01-18T12:09:53.062Z,16.35
2023-01-18T12:12:54.066Z,16.73
2023-01-18T12:15:50.162Z,16.02
2023-01-18T12:18:31.996Z,16.80
2023-01-18T12:21:12.509Z,17.42
2023-01-18T12:24:10.823Z,15.82
2023-01-18T12:26:43.559Z,15.95
2023-01-18T12:29:14.878Z,15.98
2023-01-18T12:31:57.993Z,15.60
2023-01-18T12:34:58.960Z,14.82
2023-01-18T12:38:08.266Z,15.38
2023-01-18T12:40:44.656Z,14.48
2023-01-18T12:43:12.447Z,13.55
2023-01-18T12:46:05.622Z,13.57
2023-01-18T12:48:44.190Z,11.52
2023-01-18T12:51:16.946Z,33.10
2023-01-18T12:53:48.351Z,12.00
2023-01-18T12:56:20.128Z,10.80
2023-01-18T12:58:55.070Z,11.77
2023-01-18T13:01:22.852Z,11.35
2023-01-18T13:03:51.786Z,8.93
2023-01-18T13:06:20.008Z,10.98
2023-01-18T13:08:57.317Z,12.00
2023-01-18T13:11:34.743Z,10.70
2023-01-18T13:14:35.356Z,11.65
2023-01-18T13:17:08.776Z,11.15
2023-01-18T13:19:45.731Z,8.80
2023-01-18T13:22:28.450Z,11.27
2023-01-18T13:25:41.774Z,10.90
2023-01-18T13:28:18.987Z,11.63
2023-01-18T13:31:04.913Z,9.70
2023-01-18T13:33:34.754Z,10.35
2023-01-18T13:36:14.140Z,9.65
2023-01-18T13:38:58.557Z,6.50
2023-01-18T13:41:29.705Z,8.85
2023-01-18T13:44:01.354Z,8.68
2023-01-18T13:46:29.075Z,7.90
2023-01-18T13:48:58.112Z,8.40
2023-01-18T13:51:37.188Z,7.78
2023-01-18T13:54:04.566Z,7.28
2023-01-18T13:56:33.166Z,6.60
2023-01-18T13:59:02.729Z,7.50
2023-01-18T14:01:38.691Z,7.25
2023-01-18T14:04:26.034Z,7.13
2023-01-18T14:06:53.650Z,7.20
2023-01-18T14:09:33.930Z,7.05
2023-01-18T14:12:00.993Z,6.88
2023-01-18T14:14:32.808Z,6.75
2023-01-18T14:17:14.013Z,6.32
2023-01-18T14:19:50.180Z,5.80
2023-01-18T14:22:51.215Z,6.38
2023-01-18T14:25:38.317Z,5.03
2023-01-18T14:28:09.860Z,4.85
2023-01-18T14:30:38.617Z,5.75
2023-01-18T14:33:13.366Z,7.63
2023-01-18T14:35:51.239Z,5.60
2023-01-18T14:38:20.419Z,6.28
2023-01-18T14:40:50.395Z,8.02
2023-01-18T14:43:23.977Z,7.30
2023-01-18T14:46:02.730Z,7.20
2023-01-18T14:48:34.612Z,7.07
2023-01-18T14:51:02.564Z,7.90
2023-01-18T14:53:31.762Z,7.28
2023-01-18T14:56:19.608Z,7.05
2023-01-18T14:59:00.420Z,7.80
2023-01-18T15:01:31.748Z,8.00
2023-01-18T15:04:04.281Z,8.80
2023-01-18T15:06:46.148Z,8.68
2023-01-18T15:09:13.151Z,7.78
2023-01-18T15:11:41.628Z,9.40
2023-01-18T15:14:20.684Z,8.00
2023-01-18T15:16:48.914Z,8.90
2023-01-18T15:19:38.908Z,8.35
2023-01-18T15:22:07.650Z,8.77
2023-01-18T15:24:41.306Z,9.55
2023-01-18T15:27:13.822Z,10.20
2023-01-18T15:29:40.918Z,9.38
2023-01-18T15:32:20.065Z,9.93
2023-01-18T15:34:48.635Z,9.05
2023-01-18T15:37:30.324Z,8.80
2023-01-18T15:39:57.758Z,8.90
2023-01-18T15:42:38.637Z,9.70
2023-01-18T15:45:12.933Z,7.47
2023-01-18T15:47:39.684Z,9.05
2023-01-18T15:50:21.672Z,8.10
2023-01-18T15:52:54.100Z,8.02
2023-01-18T15:55:46.474Z,8.07
2023-01-18T15:58:33.291Z,8.98
2023-01-18T16:01:05.691Z,10.05
2023-01-18T16:03:39.181Z,9.15
2023-01-18T16:06:11.355Z,9.02
2023-01-18T16:08:57.001Z,8.73
2023-01-18T16:11:32.723Z,10.35
2023-01-18T16:14:02.683Z,10.10
2023-01-18T16:16:29.839Z,9.35
2023-01-18T16:19:09.783Z,8.85
2023-01-18T16:21:50.329Z,9.45
2023-01-18T16:24:17.192Z,9.52
2023-01-18T16:26:47.023Z,8.68
2023-01-18T16:29:13.696Z,8.70
2023-01-18T16:31:43.532Z,9.57
2023-01-18T16:34:22.326Z,8.15
2023-01-18T16:36:49.952Z,10.13
2023-01-18T16:39:16.554Z,8.45
2023-01-18T16:41:51.113Z,9.52
2023-01-18T16:44:18.251Z,8.23
2023-01-18T16:46:45.722Z,9.48
2023-01-18T16:49:13.036Z,9.18
2023-01-18T16:51:40.587Z,8.98
2023-01-18T16:54:07.352Z,9.27
2023-01-18T16:56:34.188Z,9.30
2023-01-18T16:59:04.888Z,9.43
2023-01-18T17:01:39.443Z,8.23
2023-01-18T17:04:06.884Z,8.60
2023-01-18T17:06:33.561Z,8.77
2023-01-18T17:09:00.745Z,8.18
2023-01-18T17:11:27.368Z,7.15
2023-01-18T17:13:54.027Z,6.75
2023-01-18T17:16:20.719Z,7.70
2023-01-18T17:18:48.149Z,7.32
2023-01-18T17:21:15.032Z,7.70
2023-01-18T17:23:41.870Z,8.05
2023-01-18T17:26:13.946Z,8.15
2023-01-18T17:28:40.625Z,8.45
2023-01-18T17:31:08.418Z,8.40
2023-01-18T17:33:39.170Z,7.70
2023-01-18T17:36:07.023Z,8.80
2023-01-18T17:38:34.408Z,8.10
2023-01-18T17:41:01.464Z,7.93
2023-01-18T17:43:34.015Z,8.13
2023-01-18T17:46:08.825Z,7.60
2023-01-18T17:48:35.531Z,6.93
2023-01-18T17:51:06.304Z,7.70
2023-01-18T17:53:33.082Z,8.13
2023-01-18T17:55:59.755Z,6.88
2023-01-18T17:58:26.649Z,7.82
2023-01-18T18:00:53.545Z,7.45
2023-01-18T18:03:20.709Z,7.32
2023-01-18T18:05:47.447Z,7.47
2023-01-18T18:08:14.187Z,7.72
2023-01-18T18:10:43.553Z,7.70
2023-01-18T18:13:10.218Z,7.20
2023-01-18T18:15:38.347Z,6.95
2023-01-18T18:18:07.427Z,6.78
2023-01-18T18:20:38.396Z,7.72
2023-01-18T18:23:05.025Z,6.45
2023-01-18T18:25:33.032Z,7.20
2023-01-18T18:27:59.704Z,6.38
2023-01-18T18:30:26.382Z,6.90
2023-01-18T18:32:53.000Z,6.03
2023-01-18T18:35:25.367Z,6.68
2023-01-18T18:37:53.933Z,5.90
2023-01-18T18:40:20.974Z,6.88
2023-01-18T18:43:00.768Z,6.78
2023-01-18T18:45:30.385Z,8.00
2023-01-18T18:47:57.025Z,6.65
2023-01-18T18:50:23.672Z,7.25
2023-01-18T18:52:50.350Z,7.40
2023-01-18T18:55:17.703Z,8.13
2023-01-18T18:57:44.637Z,7.45
2023-01-18T19:00:12.047Z,7.53
2023-01-18T19:02:44.138Z,7.60
2023-01-18T19:05:11.132Z,6.63
2023-01-18T19:07:38.054Z,8.15
2023-01-18T19:10:05.934Z,9.45
2023-01-18T19:12:32.631Z,8.18
2023-01-18T19:14:59.575Z,8.53
2023-01-18T19:17:30.659Z,8.05
2023-01-18T19:19:58.141Z,7.25
2023-01-18T19:22:25.125Z,8.13
2023-01-18T19:24:51.763Z,9.02
2023-01-18T19:27:18.891Z,9.55
2023-01-18T19:29:46.357Z,9.03
2023-01-18T19:32:12.945Z,9.23
2023-01-18T19:34:39.835Z,8.27
2023-01-18T19:37:06.933Z,10.23
2023-01-18T19:39:34.892Z,9.83
2023-01-18T19:42:02.369Z,9.27
2023-01-18T19:44:29.108Z,8.70
2023-01-18T19:46:56.885Z,8.90
2023-01-18T19:49:26.229Z,8.33
2023-01-18T19:51:54.531Z,8.73
2023-01-18T19:54:21.838Z,8.03
2023-01-18T19:56:49.596Z,8.80
2023-01-18T19:59:16.500Z,9.50
2023-01-18T20:01:43.406Z,7.93
2023-01-18T20:04:10.306Z,8.00
2023-01-18T20:06:39.915Z,8.33
2023-01-18T20:09:18.588Z,8.67
2023-01-18T20:11:46.578Z,7.63
2023-01-18T20:14:13.294Z,7.43
2023-01-18T20:16:40.065Z,7.77
2023-01-18T20:19:06.834Z,7.80
2023-01-18T20:21:33.544Z,8.23
2023-01-18T20:24:01.139Z,7.93
2023-01-18T20:26:36.508Z,7.22
2023-01-18T20:29:06.816Z,6.83
2023-01-18T20:31:35.920Z,6.80
2023-01-18T20:34:03.409Z,6.93
2023-01-18T20:36:30.444Z,6.90
2023-01-18T20:38:57.344Z,7.05
2023-01-18T20:41:24.156Z,6.90
2023-01-18T20:43:50.804Z,6.40
2023-01-18T20:46:17.437Z,5.95
2023-01-18T20:48:44.127Z,7.10
2023-01-18T20:51:10.998Z,6.40
2023-01-18T20:53:40.597Z,5.72
2023-01-18T20:56:17.057Z,6.97
2023-01-18T20:58:54.559Z,6.03
2023-01-18T21:01:21.805Z,6.68
2023-01-18T21:03:55.333Z,6.05
2023-01-18T21:06:22.131Z,6.20
2023-01-18T21:08:54.256Z,7.18
2023-01-18T21:11:25.452Z,5.65
2023-01-18T21:13:53.395Z,6.43
2023-01-18T21:16:20.654Z,6.10
2023-01-18T21:18:48.498Z,6.03
2023-01-18T21:21:15.163Z,6.88
2023-01-18T21:23:41.858Z,5.93
2023-01-18T21:26:10.232Z,7.72
2023-01-18T21:28:36.959Z,6.07
2023-01-18T21:31:03.757Z,7.10
2023-01-18T21:33:31.596Z,5.78
2023-01-18T21:36:06.108Z,6.55
2023-01-18T21:38:32.950Z,6.68
2023-01-18T21:41:19.697Z,7.53
2023-01-18T21:44:06.843Z,6.85
2023-01-18T21:46:33.677Z,6.88
2023-01-18T21:49:07.050Z,6.35
2023-01-18T21:51:52.271Z,7.93
2023-01-18T21:54:19.713Z,6.75
2023-01-18T21:56:47.334Z,7.95
2023-01-18T21:59:14.187Z,7.75
2023-01-18T22:01:43.664Z,7.43
2023-01-18T22:04:31.562Z,6.32
2023-01-18T22:06:59.351Z,7.10
2023-01-18T22:09:27.324Z,7.38
2023-01-18T22:11:56.294Z,7.35
2023-01-18T22:14:23.718Z,7.18
2023-01-18T22:16:50.553Z,7.05
2023-01-18T22:19:19.028Z,7.55
2023-01-18T22:21:45.813Z,8.05
2023-01-18T22:24:13.057Z,6.60
2023-01-18T22:26:40.781Z,7.90
2023-01-18T22:29:08.378Z,7.20
2023-01-18T22:31:35.482Z,6.95
2023-01-18T22:34:04.485Z,6.90
2023-01-18T22:36:32.584Z,8.07
2023-01-18T22:38:59.280Z,7.30
2023-01-18T22:41:28.043Z,7.85
2023-01-18T22:43:55.402Z,7.32
2023-01-18T22:46:23.333Z,7.13
2023-01-18T22:48:50.360Z,7.57
2023-01-18T22:51:21.617Z,7.15
2023-01-18T22:53:49.511Z,6.38
2023-01-18T22:56:22.218Z,7.35
2023-01-18T22:58:49.592Z,7.50
2023-01-18T23:01:22.543Z,7.88
2023-01-18T23:03:50.105Z,7.90
2023-01-18T23:06:17.620Z,8.82
2023-01-18T23:08:45.889Z,8.00
2023-01-18T23:11:21.837Z,7.30
2023-01-18T23:14:13.176Z,6.95
2023-01-18T23:16:58.338Z,7.82
2023-01-18T23:19:25.551Z,7.80
2023-01-18T23:21:53.297Z,8.52
2023-01-18T23:24:20.388Z,8.63
2023-01-18T23:26:47.566Z,8.13
2023-01-18T23:29:14.672Z,9.02
2023-01-18T23:31:42.646Z,8.18
2023-01-18T23:34:09.861Z,6.80
2023-01-18T23:36:36.661Z,8.70
2023-01-18T23:39:21.956Z,8.95
2023-01-18T23:42:07.168Z,8.90
2023-01-18T23:44:52.444Z,7.63
2023-01-18T23:47:37.632Z,9.02
2023-01-18T23:50:23.343Z,8.98
2023-01-18T23:53:08.515Z,8.23
2023-01-18T23:55:35.155Z,7.65
2023-01-18T23:58:02.353Z,9.70
